Time,TemperatureF,DewpointF,PressureIn,WindDirection,WindDirectionDegrees,WindSpeedMPH,WindSpeedGustMPH,Humidity,HourlyPrecipIn,Conditions,Clouds,dailyrainin,SoftwareType,DateUTC
2013-03-09 00:02:00,77.2,70.9,29.59,SE,135,3.6,3.6,81,0.00,,,0.00,VWS V14.01,2013-03-08 14:02:00,
2013-03-09 00:07:00,77.0,70.7,29.59,South,180,3.1,4.0,81,0.00,,,0.00,VWS V14.01,2013-03-08 14:07:00,
2013-03-09 00:12:00,77.0,70.7,29.59,South,180,4.0,4.0,81,0.00,,,0.00,VWS V14.01,2013-03-08 14:12:00,
2013-03-09 00:17:00,77.0,70.7,29.56,SSE,158,3.6,3.6,81,0.00,,,0.00,VWS V14.01,2013-03-08 14:17:00,
2013-03-09 09:23:00,80.2,73.5,29.59,SSE,158,3.8,3.8,80,0.00,,,0.00,VWS V14.01,2013-03-08 23:23:00,
2013-03-09 09:28:00,80.6,73.5,29.59,South,180,4.3,4.3,79,0.00,,,0.00,VWS V14.01,2013-03-08 23:28:00,
2013-03-09 09:33:00,81.1,73.6,29.59,SSE,158,5.8,5.8,78,0.00,,,0.00,VWS V14.01,2013-03-08 23:33:00,
2013-03-09 09:38:00,81.3,73.8,29.59,SSE,158,4.7,7.2,78,0.00,,,0.00,VWS V14.01,2013-03-08 23:38:00,
2013-03-09 09:43:00,81.5,74.0,29.59,SE,135,3.4,3.4,78,0.00,,,0.00,VWS V14.01,2013-03-08 23:43:00,
2013-03-09 09:49:00,81.5,74.0,29.56,South,180,3.1,4.0,78,0.00,,,0.00,VWS V14.01,2013-03-08 23:49:00,
2013-03-09 09:54:00,81.5,74.0,29.56,South,180,8.1,8.1,78,0.00,,,0.00,VWS V14.01,2013-03-08 23:54:00,
2013-03-09 09:59:00,81.5,74.0,29.56,SSE,158,8.7,8.7,78,0.00,,,0.00,VWS V14.01,2013-03-08 23:59:00,
2013-03-09 10:04:00,81.5,74.0,29.59,SE,135,7.2,7.2,78,0.00,,,0.00,VWS V14.01,2013-03-09 00:04:00,
2013-03-09 10:09:00,81.5,74.0,29.59,SW,225,4.0,4.0,78,0.00,,,0.00,VWS V14.01,2013-03-09 00:09:00,
2013-03-09 10:14:00,81.5,74.0,29.59,ESE,112,5.8,5.8,78,0.00,,,0.00,VWS V14.01,2013-03-09 00:14:00,
2013-03-09 10:19:00,81.5,74.0,29.59,SW,225,4.7,4.7,78,0.00,,,0.00,VWS V14.01,2013-03-09 00:19:00,
2013-03-09 10:24:00,83.5,73.9,29.59,South,180,6.7,6.7,73,0.00,,,0.00,VWS V14.01,2013-03-09 00:24:00,
2013-03-09 10:29:00,84.0,74.8,29.59,South,180,6.7,6.7,74,0.00,,,0.00,VWS V14.01,2013-03-09 00:29:00,
2013-03-09 10:34:00,83.7,74.1,29.59,SE,135,3.4,3.8,73,0.00,,,0.00,VWS V14.01,2013-03-09 00:34:00,
2013-03-09 10:39:00,83.8,74.3,29.59,SSE,158,8.1,8.1,73,0.00,,,0.00,VWS V14.01,2013-03-09 00:39:00,
2013-03-09 10:45:00,82.9,73.4,29.59,SSE,158,8.1,8.1,73,0.00,,,0.00,VWS V14.01,2013-03-09 00:45:00,
2013-03-09 10:50:00,82.2,73.1,29.59,SSE,158,4.9,4.9,74,0.00,,,0.00,VWS V14.01,2013-03-09 00:50:00,
2013-03-09 10:55:00,82.0,72.9,29.59,SE,135,4.9,4.9,74,0.00,,,0.00,VWS V14.01,2013-03-09 00:55:00,
2013-03-09 11:00:00,82.0,72.9,29.59,SW,225,6.0,6.0,74,0.00,,,0.00,VWS V14.01,2013-03-09 01:00:00,
2013-03-09 11:05:00,82.6,73.1,29.59,SSW,202,10.5,10.5,73,0.00,,,0.00,VWS V14.01,2013-03-09 01:05:00,
2013-03-09 11:10:00,83.7,73.7,29.59,SSW,202,10.5,10.5,72,0.00,,,0.00,VWS V14.01,2013-03-09 01:10:00,
2013-03-09 11:15:00,83.7,73.7,29.59,SE,135,5.8,5.8,72,0.00,,,0.00,VWS V14.01,2013-03-09 01:15:00,
2013-03-09 11:20:00,84.0,73.6,29.59,South,180,4.7,4.7,71,0.00,,,0.00,VWS V14.01,2013-03-09 01:20:00,
2013-03-09 11:25:00,84.6,74.1,29.59,SW,225,10.3,10.3,71,0.00,,,0.00,VWS V14.01,2013-03-09 01:25:00,
2013-03-09 11:30:00,84.7,73.9,29.59,SW,225,3.6,6.0,70,0.00,,,0.00,VWS V14.01,2013-03-09 01:30:00,
2013-03-09 11:35:00,84.0,73.2,29.56,ESE,112,5.4,5.4,70,0.00,,,0.00,VWS V14.01,2013-03-09 01:35:00,
2013-03-09 11:40:00,83.8,73.4,29.56,SE,135,3.1,3.1,71,0.00,,,0.00,VWS V14.01,2013-03-09 01:40:00,
2013-03-09 11:45:00,84.6,74.1,29.56,SSE,158,3.4,3.4,71,0.00,,,0.00,VWS V14.01,2013-03-09 01:45:00,
2013-03-09 11:50:00,84.7,73.9,29.56,NE,45,4.0,4.0,70,0.00,,,0.00,VWS V14.01,2013-03-09 01:50:00,
2013-03-09 11:55:00,85.1,74.2,29.56,SSE,158,5.8,5.8,70,0.00,,,0.00,VWS V14.01,2013-03-09 01:55:00,
2013-03-09 12:00:00,84.0,73.6,29.56,South,180,7.8,7.8,71,0.00,,,0.00,VWS V14.01,2013-03-09 02:00:00,
2013-03-09 12:06:00,82.6,73.1,29.56,South,180,7.8,7.8,73,0.00,,,0.00,VWS V14.01,2013-03-09 02:06:00,
2013-03-09 12:11:00,82.0,72.9,29.56,South,180,7.8,7.8,74,0.00,,,0.00,VWS V14.01,2013-03-09 02:11:00,
2013-03-09 12:16:00,82.4,72.5,29.56,South,180,7.8,7.8,72,0.00,,,0.00,VWS V14.01,2013-03-09 02:16:00,
2013-03-09 12:21:00,82.8,72.4,29.56,SE,135,4.3,5.8,71,0.00,,,0.00,VWS V14.01,2013-03-09 02:21:00,
2013-03-09 12:26:00,82.9,72.6,29.56,South,180,5.8,5.8,71,0.00,,,0.00,VWS V14.01,2013-03-09 02:26:00,
2013-03-09 12:31:00,83.5,73.5,29.56,SSE,158,4.3,4.3,72,0.00,,,0.00,VWS V14.01,2013-03-09 02:31:00,
2013-03-09 12:36:00,83.7,73.3,29.56,West,270,3.1,3.1,71,0.00,,,0.00,VWS V14.01,2013-03-09 02:36:00,
2013-03-09 12:41:00,83.8,73.4,29.56,SE,135,3.4,4.3,71,0.00,,,0.00,VWS V14.01,2013-03-09 02:41:00,
2013-03-09 12:46:00,84.4,73.5,29.56,South,180,3.6,3.6,70,0.00,,,0.00,VWS V14.01,2013-03-09 02:46:00,
2013-03-09 12:51:00,84.6,73.7,29.56,South,180,0.0,6.3,70,0.00,,,0.00,VWS V14.01,2013-03-09 02:51:00,
2013-03-09 12:56:00,85.1,73.8,29.56,SSE,158,3.8,5.4,69,0.00,,,0.00,VWS V14.01,2013-03-09 02:56:00,
2013-03-09 13:01:00,85.5,74.1,29.56,WSW,248,3.6,3.6,69,0.00,,,0.00,VWS V14.01,2013-03-09 03:01:00,
2013-03-09 13:06:00,85.8,74.0,29.53,South,180,3.4,3.4,68,0.00,,,0.00,VWS V14.01,2013-03-09 03:06:00,
2013-03-09 13:11:00,86.0,74.2,29.53,ESE,112,3.1,3.1,68,0.00,,,0.00,VWS V14.01,2013-03-09 03:11:00,
2013-03-09 13:17:00,85.8,74.0,29.53,SSE,158,0.9,6.3,68,0.00,,,0.00,VWS V14.01,2013-03-09 03:17:00,
2013-03-09 13:22:00,85.3,74.0,29.53,SE,135,3.1,3.1,69,0.00,,,0.00,VWS V14.01,2013-03-09 03:22:00,
2013-03-09 13:27:00,84.7,72.6,29.53,SE,135,6.3,6.3,67,0.00,,,0.00,VWS V14.01,2013-03-09 03:27:00,
2013-03-09 13:32:00,84.6,72.4,29.56,SE,135,1.1,2.0,67,0.00,,,0.00,VWS V14.01,2013-03-09 03:32:00,
2013-03-09 13:37:00,83.8,73.0,29.56,ENE,68,5.8,5.8,70,0.00,,,0.00,VWS V14.01,2013-03-09 03:37:00,
2013-03-09 13:42:00,83.1,72.8,29.56,South,180,0.0,3.6,71,0.00,,,0.00,VWS V14.01,2013-03-09 03:42:00,
2013-03-09 13:47:00,83.3,73.8,29.53,East,90,3.8,3.8,73,0.00,,,0.00,VWS V14.01,2013-03-09 03:47:00,
2013-03-09 13:52:00,84.0,74.0,29.53,SSE,158,3.6,3.6,72,0.00,,,0.00,VWS V14.01,2013-03-09 03:52:00,
2013-03-09 13:57:00,84.9,74.5,29.53,SSE,158,5.6,6.0,71,0.00,,,0.00,VWS V14.01,2013-03-09 03:57:00,
2013-03-09 14:02:00,85.3,74.4,29.53,SE,135,5.4,5.4,70,0.00,,,0.00,VWS V14.01,2013-03-09 04:02:00,
2013-03-09 14:07:00,85.3,74.0,29.53,South,180,6.3,6.3,69,0.00,,,0.00,VWS V14.01,2013-03-09 04:07:00,
2013-03-09 14:12:00,85.3,74.0,29.53,South,180,3.8,3.8,69,0.00,,,0.00,VWS V14.01,2013-03-09 04:12:00,
2013-03-09 14:17:00,85.8,74.0,29.53,SSE,158,2.9,2.9,68,0.00,,,0.00,VWS V14.01,2013-03-09 04:17:00,
2013-03-09 14:22:00,85.8,74.0,29.53,South,180,1.6,1.6,68,0.00,,,0.00,VWS V14.01,2013-03-09 04:22:00,
2013-03-09 14:27:00,85.6,73.9,29.53,SSW,202,6.3,6.3,68,0.00,,,0.00,VWS V14.01,2013-03-09 04:27:00,
2013-03-09 14:32:00,85.5,73.7,29.53,SSE,158,1.3,1.3,68,0.00,,,0.00,VWS V14.01,2013-03-09 04:32:00,
2013-03-09 14:37:00,85.5,73.3,29.53,SE,135,4.7,4.7,67,0.00,,,0.00,VWS V14.01,2013-03-09 04:37:00,
2013-03-09 14:42:00,85.3,73.1,29.53,ENE,68,3.4,3.4,67,0.00,,,0.00,VWS V14.01,2013-03-09 04:42:00,
2013-03-09 14:47:00,86.0,74.2,29.50,SE,135,3.4,3.4,68,0.00,,,0.00,VWS V14.01,2013-03-09 04:47:00,
2013-03-09 14:52:00,86.0,73.8,29.50,South,180,4.3,4.3,67,0.00,,,0.00,VWS V14.01,2013-03-09 04:52:00,
2013-03-09 14:58:00,86.4,74.1,29.50,East,90,2.7,2.7,67,0.00,,,0.00,VWS V14.01,2013-03-09 04:58:00,
2013-03-09 15:00:00,86.7,74.5,29.50,East,90,4.9,4.9,67,0.00,,,0.00,VWS V14.01,2013-03-09 05:00:00,
2013-03-09 15:01:00,86.4,74.1,29.50,East,90,4.9,4.9,67,0.00,,,0.00,VWS V14.01,2013-03-09 05:01:00,
2013-03-09 15:03:00,86.2,73.9,29.50,South,180,2.5,2.7,67,0.00,,,0.00,VWS V14.01,2013-03-09 05:03:00,
2013-03-09 15:08:00,86.4,74.1,29.50,NNE,22,6.5,6.5,67,0.00,,,0.00,VWS V14.01,2013-03-09 05:08:00,
2013-03-09 15:13:00,86.0,73.8,29.50,WSW,248,2.5,2.5,67,0.00,,,0.00,VWS V14.01,2013-03-09 05:13:00,
2013-03-09 15:18:00,86.7,74.5,29.50,SSE,158,1.3,3.4,67,0.00,,,0.00,VWS V14.01,2013-03-09 05:18:00,
2013-03-09 15:23:00,86.5,73.8,29.50,SSW,202,1.3,2.2,66,0.00,,,0.00,VWS V14.01,2013-03-09 05:23:00,
2013-03-09 15:28:00,86.4,74.1,29.50,South,180,4.7,4.7,67,0.00,,,0.00,VWS V14.01,2013-03-09 05:28:00,
2013-03-09 15:33:00,86.7,74.5,29.50,SSE,158,3.8,3.8,67,0.00,,,0.00,VWS V14.01,2013-03-09 05:33:00,
2013-03-09 15:38:00,87.1,74.8,29.50,SE,135,3.6,3.6,67,0.00,,,0.00,VWS V14.01,2013-03-09 05:38:00,
2013-03-09 15:43:00,87.1,74.8,29.50,SSE,158,4.0,4.0,67,0.00,,,0.00,VWS V14.01,2013-03-09 05:43:00,
2013-03-09 15:48:00,86.5,74.3,29.50,ESE,112,3.8,3.8,67,0.00,,,0.00,VWS V14.01,2013-03-09 05:48:00,
2013-03-09 15:53:00,85.8,73.6,29.50,East,90,0.0,0.0,67,0.00,,,0.00,VWS V14.01,2013-03-09 05:53:00,
2013-03-09 15:58:00,85.3,73.5,29.50,East,90,4.3,4.3,68,0.00,,,0.00,VWS V14.01,2013-03-09 05:58:00,
2013-03-09 16:04:00,84.9,73.2,29.50,East,90,3.6,4.3,68,0.00,,,0.00,VWS V14.01,2013-03-09 06:04:00,
2013-03-09 16:09:00,84.7,73.0,29.50,East,90,2.9,2.9,68,0.00,,,0.00,VWS V14.01,2013-03-09 06:09:00,
2013-03-09 16:14:00,84.7,73.0,29.50,East,90,3.1,3.1,68,0.00,,,0.00,VWS V14.01,2013-03-09 06:14:00,
2013-03-09 16:19:00,84.7,73.0,29.50,SW,225,0.0,0.0,68,0.00,,,0.00,VWS V14.01,2013-03-09 06:19:00,
2013-03-09 16:24:00,84.6,72.8,29.50,WSW,248,2.2,2.2,68,0.00,,,0.00,VWS V14.01,2013-03-09 06:24:00,
2013-03-09 16:29:00,84.6,72.8,29.50,SSW,202,1.1,3.1,68,0.00,,,0.00,VWS V14.01,2013-03-09 06:29:00,
2013-03-09 16:34:00,84.7,73.0,29.50,East,90,1.1,1.1,68,0.00,,,0.00,VWS V14.01,2013-03-09 06:34:00,
2013-03-09 16:39:00,84.9,73.6,29.50,SSE,158,1.6,1.6,69,0.00,,,0.00,VWS V14.01,2013-03-09 06:39:00,
2013-03-09 16:44:00,84.7,73.4,29.50,SSE,158,2.0,2.0,69,0.00,,,0.00,VWS V14.01,2013-03-09 06:44:00,
2013-03-09 16:49:00,84.7,73.0,29.50,SE,135,1.3,1.3,68,0.00,,,0.00,VWS V14.01,2013-03-09 06:49:00,
2013-03-09 16:54:00,84.7,73.0,29.50,SE,135,2.7,2.7,68,0.00,,,0.00,VWS V14.01,2013-03-09 06:54:00,
2013-03-09 16:59:00,84.7,73.0,29.50,SSE,158,2.9,3.4,68,0.00,,,0.00,VWS V14.01,2013-03-09 06:59:00,
2013-03-09 17:04:00,84.7,73.0,29.53,SSE,158,0.0,0.0,68,0.00,,,0.00,VWS V14.01,2013-03-09 07:04:00,
2013-03-09 17:09:00,84.7,73.0,29.53,SE,135,0.0,0.0,68,0.00,,,0.00,VWS V14.01,2013-03-09 07:09:00,
2013-03-09 17:14:00,84.7,73.0,29.53,SSE,158,1.1,4.9,68,0.00,,,0.00,VWS V14.01,2013-03-09 07:14:00,
2013-03-09 17:19:00,84.7,73.0,29.53,South,180,3.6,3.6,68,0.00,,,0.00,VWS V14.01,2013-03-09 07:19:00,
2013-03-09 17:24:00,84.7,73.0,29.53,South,180,3.8,3.8,68,0.00,,,0.00,VWS V14.01,2013-03-09 07:24:00,
2013-03-09 17:29:00,84.7,73.0,29.53,SSE,158,0.0,0.0,68,0.00,,,0.00,VWS V14.01,2013-03-09 07:29:00,
2013-03-09 17:34:00,84.7,73.0,29.50,SSE,158,2.7,2.7,68,0.00,,,0.00,VWS V14.01,2013-03-09 07:34:00,
2013-03-09 17:40:00,84.0,72.8,29.50,South,180,3.1,3.4,69,0.00,,,0.00,VWS V14.01,2013-03-09 07:40:00,
2013-03-09 17:45:00,84.0,72.8,29.50,South,180,2.5,2.5,69,0.00,,,0.00,VWS V14.01,2013-03-09 07:45:00,
2013-03-09 17:50:00,84.0,72.8,29.50,SSW,202,0.0,0.0,69,0.00,,,0.00,VWS V14.01,2013-03-09 07:50:00,
2013-03-09 17:55:00,83.8,73.0,29.50,South,180,2.9,2.9,70,0.00,,,0.00,VWS V14.01,2013-03-09 07:55:00,
2013-03-09 18:00:00,83.5,72.2,29.50,South,180,0.0,2.7,69,0.00,,,0.00,VWS V14.01,2013-03-09 08:00:00,
2013-03-09 18:05:00,83.5,72.7,29.53,South,180,0.0,0.0,70,0.00,,,0.00,VWS V14.01,2013-03-09 08:05:00,
2013-03-09 18:10:00,83.5,72.7,29.53,SW,225,0.0,2.2,70,0.00,,,0.00,VWS V14.01,2013-03-09 08:10:00,
2013-03-09 18:15:00,83.5,72.7,29.53,West,270,1.6,2.9,70,0.00,,,0.00,VWS V14.01,2013-03-09 08:15:00,
2013-03-09 18:20:00,83.1,72.3,29.53,SSE,158,4.9,4.9,70,0.00,,,0.00,VWS V14.01,2013-03-09 08:20:00,
2013-03-09 18:25:00,83.1,72.3,29.53,SSE,158,2.5,2.5,70,0.00,,,0.00,VWS V14.01,2013-03-09 08:25:00,
2013-03-09 18:30:00,82.9,72.6,29.53,SSE,158,3.4,5.6,71,0.00,,,0.00,VWS V14.01,2013-03-09 08:30:00,
2013-03-09 18:35:00,82.8,72.4,29.53,SSW,202,2.2,2.2,71,0.00,,,0.00,VWS V14.01,2013-03-09 08:35:00,
2013-03-09 18:40:00,82.6,72.2,29.53,SE,135,3.1,3.1,71,0.00,,,0.00,VWS V14.01,2013-03-09 08:40:00,
2013-03-09 18:45:00,82.4,72.1,29.53,South,180,2.9,2.9,71,0.00,,,0.00,VWS V14.01,2013-03-09 08:45:00,
2013-03-09 18:50:00,82.2,72.3,29.53,SSE,158,4.9,4.9,72,0.00,,,0.00,VWS V14.01,2013-03-09 08:50:00,
2013-03-09 18:55:00,82.2,72.3,29.53,South,180,3.1,3.1,72,0.00,,,0.00,VWS V14.01,2013-03-09 08:55:00,
2013-03-09 19:00:00,82.0,72.1,29.53,SSE,158,1.6,4.0,72,0.00,,,0.00,VWS V14.01,2013-03-09 09:00:00,
2013-03-09 19:05:00,81.9,71.9,29.53,South,180,3.4,3.4,72,0.00,,,0.00,VWS V14.01,2013-03-09 09:05:00,
2013-03-09 19:11:00,81.9,71.9,29.53,South,180,4.9,4.9,72,0.00,,,0.00,VWS V14.01,2013-03-09 09:11:00,
2013-03-09 19:16:00,81.7,71.8,29.53,ESE,112,5.4,5.4,72,0.00,,,0.00,VWS V14.01,2013-03-09 09:16:00,
2013-03-09 19:21:00,81.5,72.0,29.56,South,180,3.6,3.6,73,0.00,,,0.00,VWS V14.01,2013-03-09 09:21:00,
2013-03-09 19:26:00,81.5,72.0,29.56,South,180,2.0,2.0,73,0.00,,,0.00,VWS V14.01,2013-03-09 09:26:00,
2013-03-09 19:31:00,81.5,72.4,29.56,SW,225,2.7,2.7,74,0.00,,,0.00,VWS V14.01,2013-03-09 09:31:00,
2013-03-09 19:36:00,81.5,72.4,29.56,SSE,158,2.9,2.9,74,0.00,,,0.00,VWS V14.01,2013-03-09 09:36:00,
2013-03-09 19:41:00,81.1,71.7,29.56,SSE,158,7.6,7.6,73,0.00,,,0.00,VWS V14.01,2013-03-09 09:41:00,
2013-03-09 19:46:00,81.3,71.8,29.56,South,180,6.3,6.3,73,0.00,,,0.00,VWS V14.01,2013-03-09 09:46:00,
2013-03-09 19:51:00,81.3,71.8,29.56,SSE,158,3.1,6.7,73,0.00,,,0.00,VWS V14.01,2013-03-09 09:51:00,
2013-03-09 19:56:00,81.3,71.8,29.56,South,180,4.0,4.5,73,0.00,,,0.00,VWS V14.01,2013-03-09 09:56:00,
2013-03-09 20:01:00,81.3,71.8,29.56,SE,135,7.8,7.8,73,0.00,,,0.00,VWS V14.01,2013-03-09 10:01:00,
2013-03-09 20:06:00,81.3,71.8,29.56,SSE,158,3.8,3.8,73,0.00,,,0.00,VWS V14.01,2013-03-09 10:06:00,
2013-03-09 20:11:00,81.1,71.7,29.56,SSE,158,3.1,6.5,73,0.00,,,0.00,VWS V14.01,2013-03-09 10:11:00,
2013-03-09 20:16:00,81.1,71.7,29.56,SSE,158,7.8,7.8,73,0.00,,,0.00,VWS V14.01,2013-03-09 10:16:00,
2013-03-09 20:21:00,81.0,71.5,29.56,SW,225,9.4,9.4,73,0.00,,,0.00,VWS V14.01,2013-03-09 10:21:00,
2013-03-09 20:26:00,81.0,71.5,29.56,SSW,202,5.6,5.6,73,0.00,,,0.00,VWS V14.01,2013-03-09 10:26:00,
2013-03-09 20:31:00,81.0,71.5,29.56,SE,135,4.9,4.9,73,0.00,,,0.00,VWS V14.01,2013-03-09 10:31:00,
2013-03-09 20:36:00,80.8,71.3,29.56,SSW,202,3.4,3.4,73,0.00,,,0.00,VWS V14.01,2013-03-09 10:36:00,
2013-03-09 20:42:00,80.8,71.3,29.56,SE,135,4.9,4.9,73,0.00,,,0.00,VWS V14.01,2013-03-09 10:42:00,
2013-03-09 20:47:00,80.6,71.2,29.59,SSE,158,5.6,5.6,73,0.00,,,0.00,VWS V14.01,2013-03-09 10:47:00,
2013-03-09 20:52:00,80.6,71.2,29.59,ESE,112,4.0,7.4,73,0.00,,,0.00,VWS V14.01,2013-03-09 10:52:00,
2013-03-09 20:57:00,80.6,71.2,29.59,SE,135,2.9,4.3,73,0.00,,,0.00,VWS V14.01,2013-03-09 10:57:00,
2013-03-09 21:02:00,80.6,71.2,29.59,SE,135,4.0,4.0,73,0.00,,,0.00,VWS V14.01,2013-03-09 11:02:00,
2013-03-09 21:07:00,80.4,71.0,29.59,SW,225,3.4,3.4,73,0.00,,,0.00,VWS V14.01,2013-03-09 11:07:00,
2013-03-09 21:12:00,80.4,71.0,29.59,NNW,338,0.0,2.0,73,0.00,,,0.00,VWS V14.01,2013-03-09 11:12:00,
2013-03-09 21:17:00,80.4,71.0,29.59,SW,225,2.7,2.7,73,0.00,,,0.00,VWS V14.01,2013-03-09 11:17:00,
2013-03-09 21:22:00,80.2,70.8,29.59,SW,225,2.5,4.7,73,0.00,,,0.00,VWS V14.01,2013-03-09 11:22:00,
2013-03-09 21:27:00,80.4,71.0,29.59,SE,135,0.0,0.0,73,0.00,,,0.00,VWS V14.01,2013-03-09 11:27:00,
2013-03-09 21:32:00,80.2,71.2,29.59,SE,135,0.0,0.0,74,0.00,,,0.00,VWS V14.01,2013-03-09 11:32:00,
2013-03-09 21:37:00,80.1,71.0,29.59,ENE,68,1.3,1.3,74,0.00,,,0.00,VWS V14.01,2013-03-09 11:37:00,
2013-03-09 21:42:00,80.1,71.0,29.59,SSE,158,0.0,0.0,74,0.00,,,0.00,VWS V14.01,2013-03-09 11:42:00,
2013-03-09 21:47:00,80.1,71.0,29.59,SSW,202,4.3,4.3,74,0.00,,,0.00,VWS V14.01,2013-03-09 11:47:00,
2013-03-09 21:52:00,79.9,71.2,29.59,SSW,202,3.4,3.4,75,0.00,,,0.00,VWS V14.01,2013-03-09 11:52:00,
2013-03-09 21:57:00,79.9,71.2,29.59,SE,135,7.8,7.8,75,0.00,,,0.00,VWS V14.01,2013-03-09 11:57:00,
2013-03-09 22:02:00,79.7,71.1,29.59,SSE,158,3.4,3.4,75,0.00,,,0.00,VWS V14.01,2013-03-09 12:02:00,
2013-03-09 22:07:00,79.7,71.1,29.59,South,180,8.5,8.5,75,0.00,,,0.00,VWS V14.01,2013-03-09 12:07:00,
2013-03-09 22:13:00,79.7,71.1,29.59,South,180,6.3,7.2,75,0.00,,,0.00,VWS V14.01,2013-03-09 12:13:00,
2013-03-09 22:18:00,79.9,71.2,29.59,South,180,3.1,3.1,75,0.00,,,0.00,VWS V14.01,2013-03-09 12:18:00,
2013-03-09 22:23:00,79.7,71.1,29.59,South,180,3.6,3.6,75,0.00,,,0.00,VWS V14.01,2013-03-09 12:23:00,
2013-03-09 22:28:00,79.7,71.1,29.59,SSE,158,3.4,3.4,75,0.00,,,0.00,VWS V14.01,2013-03-09 12:28:00,
2013-03-09 22:33:00,79.3,71.1,29.59,South,180,1.6,1.6,76,0.00,,,0.00,VWS V14.01,2013-03-09 12:33:00,
2013-03-09 22:38:00,79.2,70.9,29.59,SSW,202,4.9,4.9,76,0.00,,,0.00,VWS V14.01,2013-03-09 12:38:00,
2013-03-09 22:43:00,79.2,70.9,29.59,SW,225,2.7,4.9,76,0.00,,,0.00,VWS V14.01,2013-03-09 12:43:00,
2013-03-09 22:48:00,79.2,70.9,29.59,South,180,2.9,3.4,76,0.00,,,0.00,VWS V14.01,2013-03-09 12:48:00,
2013-03-09 22:53:00,79.2,70.9,29.59,SE,135,3.4,3.4,76,0.00,,,0.00,VWS V14.01,2013-03-09 12:53:00,
2013-03-09 22:58:00,79.2,70.9,29.59,SE,135,2.0,2.0,76,0.00,,,0.00,VWS V14.01,2013-03-09 12:58:00,
2013-03-09 23:03:00,79.0,71.2,29.59,SE,135,0.0,0.9,77,0.00,,,0.00,VWS V14.01,2013-03-09 13:03:00,
2013-03-09 23:08:00,79.2,71.3,29.59,South,180,0.0,0.0,77,0.00,,,0.00,VWS V14.01,2013-03-09 13:08:00,
2013-03-09 23:13:00,79.0,71.2,29.59,SSE,158,1.3,1.3,77,0.00,,,0.00,VWS V14.01,2013-03-09 13:13:00,
2013-03-09 23:18:00,79.0,71.2,29.59,SW,225,0.0,0.0,77,0.00,,,0.00,VWS V14.01,2013-03-09 13:18:00,
2013-03-09 23:23:00,78.8,71.0,29.59,ESE,112,3.6,4.3,77,0.00,,,0.00,VWS V14.01,2013-03-09 13:23:00,
2013-03-09 23:28:00,78.8,71.4,29.59,South,180,10.1,10.1,78,0.00,,,0.00,VWS V14.01,2013-03-09 13:28:00,
2013-03-09 23:33:00,78.3,71.2,29.62,SE,135,7.2,10.1,79,0.00,,,0.00,VWS V14.01,2013-03-09 13:33:00,
2013-03-09 23:38:00,78.1,71.0,29.62,SE,135,5.8,5.8,79,0.00,,,0.00,VWS V14.01,2013-03-09 13:38:00,
2013-03-09 23:44:00,77.9,71.2,29.62,ESE,112,2.5,2.7,80,0.00,,,0.00,VWS V14.01,2013-03-09 13:44:00,
2013-03-09 23:49:00,78.1,71.8,29.62,ENE,68,0.0,0.0,81,0.00,,,0.00,VWS V14.01,2013-03-09 13:49:00,
2013-03-09 23:54:00,77.7,71.4,29.62,SW,225,1.3,1.3,81,0.00,,,0.00,VWS V14.01,2013-03-09 13:54:00,
2013-03-09 23:59:00,77.7,71.4,29.62,South,180,3.4,3.4,81,0.00,,,0.00,VWS V14.01,2013-03-09 13:59:00,